• Join FlightAware (Why Join?)
  • Login
  • US Flag 
06:08PM EDT


 

Airport Tracker/Info


-or-


 

Live Flight TrackerFlight Track Log ✈ SWA1810 ✈ 22-Apr-2013 ✈ KCMH - KPHX

Flight Track Log - Related Links

Times and Time Zones

All times are in EDT time to prevent confusion due to time zone crossing. See the SWA1810 flight status page for this flight to view local times or setup timezone preferences in your user account.

Time Position Orientation Groundspeed Altitude Reporting Facility
EDT Latitude Longitude Course Direction KTS MPH feet Rate Location/Type
01:03PM 39.9883 -82.7481 93° East 234 269 5,000  Level Indianapolis Center
01:04PM 40.0078 -82.7031 61° Northeast 238 274 6,600 2,880 Climbing Indianapolis Center
01:05PM 40.0433 -82.7661 306° West 254 292 9,900 2,220 Climbing Indianapolis Center
01:06PM 40.0439 -82.8767 270° West 311 358 11,200 2,100 Climbing Indianapolis Center
01:07PM 40.0367 -83.0053 266° West 350 403 14,300 3,060 Climbing Indianapolis Center
01:08PM 40.0303 -83.1386 266° West 365 420 17,600 3,000 Climbing Indianapolis Center
01:09PM 40.0219 -83.2961 266° West 373 429 20,500 2,460 Climbing Indianapolis Center
01:10PM 40.0142 -83.4361 266° West 386 444 22,700 1,920 Climbing Indianapolis Center
01:11PM 40.0061 -83.5822 266° West 406 467 24,600 1,560 Climbing Indianapolis Center
01:12PM 39.9975 -83.7333 266° West 418 481 26,000 1,260 Climbing Indianapolis Center
01:13PM 39.9875 -83.8867 265° West 424 488 27,300 1,440 Climbing Indianapolis Center
01:14PM 39.9778 -84.0669 266° West 426 490 29,000 960 Climbing Indianapolis Center
01:15PM 39.9683 -84.2267 266° West 435 501 29,300 900 Climbing Indianapolis Center
01:16PM 39.9575 -84.3847 265° West 436 502 30,900 1,680 Climbing Indianapolis Center
01:17PM 39.9478 -84.5392 265° West 429 494 32,800 1,680 Climbing Indianapolis Center
01:18PM 39.9369 -84.6931 265° West 424 488 34,400 1,200 Climbing Indianapolis Center
01:19PM 39.9275 -84.8211 265° West 424 488 35,400 720 Climbing Indianapolis Center
01:20PM 39.9167 -85.0011 266° West 424 488 36,000 240 Climbing Indianapolis Center
01:21PM 39.9044 -85.1814 265° West 425 489 36,000  Level Indianapolis Center
01:24PM 39.8814 -85.4897 265° West 426 490 36,000  Level Indianapolis Center
01:25PM 39.8703 -85.6431 265° West 423 487 36,000  Level Indianapolis Center
01:26PM 39.8578 -85.7992 264° West 428 493 36,000  Level Indianapolis Center
01:27PM 39.8469 -85.9500 265° West 426 490 36,000  Level Indianapolis Center
01:28PM 39.8317 -86.1028 263° West 426 490 36,000  Level Indianapolis Center
01:29PM 39.8078 -86.2814 260° West 420 483 36,000 360 Level Indianapolis Center
01:30PM 39.7883 -86.4306 260° West 419 482 36,800 840 Climbing Indianapolis Center
01:31PM 39.7683 -86.5797 260° West 419 482 37,800 540 Climbing Indianapolis Center
01:32PM 39.7497 -86.7258 261° West 413 475 38,000 60 Climbing Indianapolis Center
01:33PM 39.7292 -86.8714 260° West 410 472 38,000  Level Indianapolis Center
01:34PM 39.7097 -87.0175 260° West 410 472 38,000  Level Indianapolis Center
01:35PM 39.6894 -87.1633 260° West 410 472 38,000  Level Indianapolis Center
01:36PM 39.6650 -87.3381 260° West 410 472 38,000  Level Indianapolis Center
01:37PM 39.6444 -87.4844 260° West 411 473 38,000  Level Indianapolis Center
01:38PM 39.6247 -87.6300 260° West 410 472 38,000  Level Indianapolis Center
01:39PM 39.6047 -87.7744 260° West 409 471 38,000  Level Indianapolis Center
01:40PM 39.5839 -87.9164 259° West 406 467 38,000  Level Indianapolis Center
01:40PM 39.5803 -87.9442 260° West 406 467 38,000  Level Kansas City Center
01:41PM 39.5603 -88.0869 260° West 404 465 38,000  Level Kansas City Center
01:42PM 39.5347 -88.2553 259° West 401 461 38,000  Level Kansas City Center
01:43PM 39.5144 -88.3944 259° West 398 458 38,000  Level Kansas City Center
01:44PM 39.4936 -88.5347 259° West 397 457 38,000  Level Kansas City Center
01:45PM 39.4694 -88.6789 258° West 407 468 38,000  Level Kansas City Center
01:46PM 39.4494 -88.8197 260° West 402 463 38,000  Level Kansas City Center
01:48PM 39.4278 -88.9583 259° West 396 456 38,000  Level Kansas City Center
01:49PM 39.4039 -89.1136 259° West 397 457 38,000  Level Kansas City Center
01:50PM 39.3814 -89.2558 258° West 402 463 38,000  Level Kansas City Center
01:51PM 39.3586 -89.3975 258° West 404 465 38,000  Level Kansas City Center
01:52PM 39.3369 -89.5403 259° West 406 467 38,000  Level Kansas City Center
01:53PM 39.3092 -89.7100 258° West 406 467 38,000  Level Kansas City Center
01:54PM 39.2872 -89.8506 259° West 403 464 38,000  Level Kansas City Center
01:55PM 39.2639 -89.9914 258° West 404 465 38,000  Level Kansas City Center
01:56PM 39.2406 -90.1306 258° West 401 461 38,000  Level Kansas City Center
01:57PM 39.2178 -90.2694 258° West 400 460 38,000  Level Kansas City Center
01:58PM 39.1914 -90.4344 258° West 396 456 38,000  Level Kansas City Center
01:59PM 39.1672 -90.5733 257° West 399 459 38,000  Level Kansas City Center
02:00PM 39.1439 -90.7103 258° West 395 455 38,000  Level Kansas City Center
02:01PM 39.1206 -90.8508 258° West 401 461 38,000  Level Kansas City Center
02:02PM 39.0964 -90.9925 258° West 406 467 38,000  Level Kansas City Center
02:03PM 39.0672 -91.1608 257° West 405 466 38,000  Level Kansas City Center
02:04PM 39.0433 -91.3000 258° West 401 461 38,000  Level Kansas City Center
02:05PM 39.0183 -91.4389 257° West 400 460 38,000  Level Kansas City Center
02:06PM 38.9944 -91.5781 258° West 401 461 38,000  Level Kansas City Center
02:07PM 38.9664 -91.7328 257° West 396 456 38,000  Level Kansas City Center
02:08PM 38.9411 -91.8692 257° West 393 452 38,000  Level Kansas City Center
02:09PM 38.9161 -92.0064 257° West 394 453 38,000  Level Kansas City Center
02:10PM 38.8917 -92.1417 257° West 392 451 38,000  Level Kansas City Center
02:11PM 38.8653 -92.2794 256° West 395 455 38,000  Level Kansas City Center
02:12PM 38.8350 -92.4436 257° West 395 455 38,000  Level Kansas City Center
02:13PM 38.8089 -92.5775 256° West 390 449 38,000  Level Kansas City Center
02:14PM 38.7831 -92.7158 257° West 395 455 38,000  Level Kansas City Center
02:15PM 38.7575 -92.8506 256° West 393 452 38,000  Level Kansas City Center
02:16PM 38.7319 -92.9839 256° West 389 448 38,000  Level Kansas City Center
02:17PM 38.7056 -93.1169 256° West 388 447 38,000  Level Kansas City Center
02:19PM 38.6747 -93.2756 256° West 384 442 38,000  Level Kansas City Center
02:20PM 38.6486 -93.4067 256° West 382 440 38,000  Level Kansas City Center
02:21PM 38.6231 -93.5394 256° West 384 442 38,000  Level Kansas City Center
02:22PM 38.5969 -93.6711 256° West 383 441 38,000  Level Kansas City Center
02:23PM 38.5706 -93.8106 256° West 381 438 38,000  Level Kansas City Center
02:24PM 38.5453 -93.9369 256° West 383 441 38,000  Level Kansas City Center
02:25PM 38.5161 -94.0814 256° West 376 433 38,000  Level Kansas City Center
02:26PM 38.4908 -94.2072 256° West 381 438 38,000  Level Kansas City Center
02:27PM 38.4611 -94.3522 255° West 378 435 38,000  Level Kansas City Center
02:28PM 38.4353 -94.4758 255° West 377 434 38,000  Level Kansas City Center
02:29PM 38.4047 -94.6222 255° West 380 437 38,000  Level Kansas City Center
02:30PM 38.3781 -94.7461 255° West 379 436 38,000  Level Kansas City Center
02:31PM 38.3492 -94.8894 256° West 374 430 38,000  Level Kansas City Center
02:32PM 38.3231 -95.0111 255° West 371 427 38,000  Level Kansas City Center
02:33PM 38.2972 -95.1328 255° West 370 426 38,000  Level Kansas City Center
02:34PM 38.2672 -95.2725 255° West 370 426 38,000  Level Kansas City Center
02:35PM 38.2414 -95.3908 255° West 365 420 38,000  Level Kansas City Center
02:36PM 38.2122 -95.5292 255° West 362 417 38,000  Level Kansas City Center
02:37PM 38.1867 -95.6453 254° West 355 409 38,000  Level Kansas City Center
02:38PM 38.1578 -95.7781 255° West 350 403 38,000  Level Kansas City Center
02:39PM 38.1331 -95.8919 255° West 347 399 38,000  Level Kansas City Center
02:40PM 38.1083 -96.0036 254° West 345 397 38,000  Level Kansas City Center
02:41PM 38.0772 -96.1425 254° West 349 402 38,000  Level Kansas City Center
02:42PM 38.0508 -96.2619 254° West 348 400 38,000  Level Kansas City Center
02:43PM 38.0242 -96.3806 254° West 348 400 38,000  Level Kansas City Center
02:44PM 37.9969 -96.5008 254° West 355 409 38,000  Level Kansas City Center
02:45PM 37.9694 -96.6208 254° West 356 410 38,000  Level Kansas City Center
02:46PM 37.9428 -96.7411 254° West 356 410 38,000  Level Kansas City Center
02:47PM 37.9142 -96.8628 253° West 359 413 38,000  Level Kansas City Center
02:48PM 37.8861 -96.9839 254° West 360 414 38,000  Level Kansas City Center
02:49PM 37.8525 -97.1297 254° West 361 415 38,000  Level Kansas City Center
02:50PM 37.8233 -97.2511 253° West 361 415 38,000  Level Kansas City Center
02:52PM 37.7958 -97.3728 254° West 360 414 38,000  Level Kansas City Center
02:53PM 37.7636 -97.5056 253° West 357 411 38,000  Level Kansas City Center
02:54PM 37.7372 -97.6250 254° West 355 409 38,000  Level Kansas City Center
02:55PM 37.7142 -97.7456 256° West 353 406 38,000  Level Kansas City Center
02:56PM 37.6908 -97.8669 256° West 354 407 38,000  Level Kansas City Center
02:57PM 37.6672 -97.9892 256° West 357 411 38,000  Level Kansas City Center
02:58PM 37.6375 -98.1106 253° West 361 415 38,000  Level Kansas City Center
02:59PM 37.6022 -98.2483 252° West 362 417 38,000  Level Kansas City Center
03:00PM 37.5722 -98.3708 253° West 365 420 38,000  Level Kansas City Center
03:01PM 37.5417 -98.4942 253° West 367 422 38,000  Level Kansas City Center
03:02PM 37.5108 -98.6178 253° West 370 426 38,000  Level Kansas City Center
03:03PM 37.4800 -98.7419 253° West 371 427 38,000  Level Kansas City Center
03:04PM 37.4486 -98.8644 252° West 370 426 38,000  Level Kansas City Center
03:05PM 37.4183 -98.9867 253° West 366 421 38,000  Level Kansas City Center
03:06PM 37.3792 -99.1325 251° West 367 422 38,000  Level Kansas City Center
03:07PM 37.3478 -99.2556 252° West 369 425 38,000  Level Kansas City Center
03:08PM 37.3172 -99.3783 253° West 368 423 38,000  Level Kansas City Center
03:09PM 37.2808 -99.5139 251° West 370 426 38,000  Level Kansas City Center
03:10PM 37.2503 -99.6325 252° West 372 428 38,000  Level Kansas City Center
03:11PM 37.2142 -99.7703 252° West 372 428 38,000  Level Kansas City Center
03:12PM 37.1831 -99.8886 252° West 373 429 38,000  Level Kansas City Center
03:13PM 37.1514 -100.0069 251° West 373 429 38,000  Level Kansas City Center
03:14PM 37.1164 -100.1431 252° West 369 425 38,000  Level Kansas City Center
03:15PM 37.0861 -100.2592 252° West 367 422 38,000  Level Kansas City Center
03:16PM 37.0497 -100.3928 251° West 363 418 38,000  Level Kansas City Center
03:17PM 37.0186 -100.5058 251° West 360 414 38,000  Level Kansas City Center
03:18PM 36.9833 -100.6375 251° West 358 412 38,000  Level Kansas City Center
03:19PM 36.9536 -100.7492 252° West 356 410 38,000  Level Kansas City Center
03:20PM 36.9225 -100.8611 251° West 355 409 38,000  Level Kansas City Center
03:21PM 36.8869 -100.9914 251° West 353 406 38,000  Level Kansas City Center
03:22PM 36.8558 -101.1033 251° West 356 410 38,000  Level Kansas City Center
03:23PM 36.8194 -101.2333 251° West 355 409 38,000  Level Kansas City Center
03:25PM 36.7889 -101.3467 251° West 357 411 38,000  Level Kansas City Center
03:26PM 36.7517 -101.4775 250° West 358 412 38,000  Level Kansas City Center
03:27PM 36.7147 -101.6108 251° West 362 417 38,000  Level Albuquerque Center
03:28PM 36.6836 -101.7236 251° West 360 414 38,000  Level Albuquerque Center
03:29PM 36.6458 -101.8531 250° West 358 412 38,000  Level Albuquerque Center
03:30PM 36.6139 -101.9661 251° West 360 414 38,000  Level Albuquerque Center
03:31PM 36.5758 -102.0983 250° West 361 415 38,000  Level Albuquerque Center
03:32PM 36.5425 -102.2156 251° West 362 417 38,000  Level Albuquerque Center
03:33PM 36.5089 -102.3311 250° West 359 413 38,000  Level Albuquerque Center
03:34PM 36.4756 -102.4472 250° West 358 412 38,000  Level Albuquerque Center
03:35PM 36.4422 -102.5644 251° West 361 415 38,000  Level Albuquerque Center
03:36PM 36.4067 -102.6839 250° West 367 422 38,000  Level Albuquerque Center
03:37PM 36.3656 -102.8242 250° West 364 419 38,000  Level Albuquerque Center
03:38PM 36.3331 -102.9322 250° West 363 418 38,000  Level Albuquerque Center
03:39PM 36.2981 -103.0508 250° West 364 419 38,000  Level Albuquerque Center
03:40PM 36.2569 -103.1917 250° West 369 425 38,000  Level Albuquerque Center
03:41PM 36.2231 -103.3128 251° West 370 426 38,000  Level Albuquerque Center
03:42PM 36.1872 -103.4339 250° West 372 428 38,000  Level Albuquerque Center
03:43PM 36.1503 -103.5511 249° West 367 422 38,000  Level Albuquerque Center
03:44PM 36.1139 -103.6672 249° West 362 417 38,000  Level Albuquerque Center
03:45PM 36.0772 -103.7842 249° West 362 417 38,000  Level Albuquerque Center
03:46PM 36.0422 -103.9039 250° West 367 422 38,000  Level Albuquerque Center
03:47PM 35.9983 -104.0444 249° West 372 428 38,000  Level Albuquerque Center
03:48PM 35.9611 -104.1647 249° West 373 429 38,000  Level Albuquerque Center
03:49PM 35.9256 -104.2853 250° West 374 430 38,000  Level Albuquerque Center
03:50PM 35.9036 -104.4119 258° West 375 432 38,000  Level Albuquerque Center
03:51PM 35.8811 -104.5392 258° West 378 435 38,000  Level Albuquerque Center
03:52PM 35.8581 -104.6689 258° West 383 441 38,000  Level Albuquerque Center
03:54PM 35.8350 -104.7978 258° West 384 442 38,000  Level Albuquerque Center
03:55PM 35.8078 -104.9483 257° West 384 442 38,000  Level Albuquerque Center
03:56PM 35.7836 -105.0789 257° West 388 447 38,000  Level Albuquerque Center
03:57PM 35.7600 -105.2089 257° West 388 447 38,000  Level Albuquerque Center
03:58PM 35.7361 -105.3381 257° West 385 443 38,000  Level Albuquerque Center
03:59PM 35.7114 -105.4669 257° West 384 442 38,000  Level Albuquerque Center
04:00PM 35.6847 -105.6117 257° West 388 447 38,000  Level Albuquerque Center
04:01PM 35.6617 -105.7381 257° West 382 440 38,000  Level Albuquerque Center
04:02PM 35.6358 -105.8717 257° West 377 434 38,000  Level Albuquerque Center
04:03PM 35.6142 -105.9861 257° West 372 428 38,000  Level Albuquerque Center
04:04PM 35.5917 -106.1075 257° West 368 423 38,000  Level Albuquerque Center
04:05PM 35.5697 -106.2322 258° West 371 427 38,000  Level Albuquerque Center
04:06PM 35.5450 -106.3561 256° West 374 430 38,000  Level Albuquerque Center
04:07PM 35.5167 -106.5047 257° West 375 432 38,000  Level Albuquerque Center
04:08PM 35.4928 -106.6300 257° West 378 435 38,000  Level Albuquerque Center
04:09PM 35.4681 -106.7536 256° West 376 433 38,000  Level Albuquerque Center
04:10PM 35.4431 -106.8764 256° West 375 432 38,000  Level Albuquerque Center
04:11PM 35.4181 -107.0006 256° West 378 435 38,000  Level Albuquerque Center
04:12PM 35.3886 -107.1497 256° West 378 435 38,000  Level Albuquerque Center
04:13PM 35.3636 -107.2753 256° West 382 440 38,000  Level Albuquerque Center
04:14PM 35.3361 -107.4028 255° West 386 444 38,000  Level Albuquerque Center
04:15PM 35.3097 -107.5386 257° West 392 451 38,000  Level Albuquerque Center
04:16PM 35.2783 -107.6856 255° West 398 458 38,000 -480 Level Albuquerque Center
04:17PM 35.2525 -107.8119 256° West 399 459 37,100 -780 Descending Albuquerque Center
04:18PM 35.2225 -107.9553 256° West 392 451 36,400 -840 Descending Albuquerque Center
04:19PM 35.1978 -108.0783 256° West 390 449 35,500 -900 Descending Albuquerque Center
04:20PM 35.1719 -108.2044 256° West 394 453 34,600 -1,020 Descending Albuquerque Center
04:21PM 35.1400 -108.3536 255° West 402 463 33,500 -1,020 Descending Albuquerque Center
04:22PM 35.1125 -108.4828 255° West 407 468 32,500 -780 Descending Albuquerque Center
04:23PM 35.0797 -108.6353 255° West 413 475 32,000 -300 Descending Albuquerque Center
04:24PM 35.0522 -108.7653 256° West 413 475 32,000  Level Albuquerque Center
04:26PM 35.0192 -108.9186 255° West 416 479 32,000  Level Albuquerque Center
04:27PM 34.9906 -109.0508 255° West 419 482 32,000  Level Albuquerque Center
04:28PM 34.9597 -109.1794 254° West 415 478 32,000  Level Albuquerque Center
04:29PM 34.9058 -109.3269 246° West 422 486 32,000  Level Albuquerque Center
04:30PM 34.8603 -109.4522 246° West 422 486 32,000  Level Albuquerque Center
04:31PM 34.8047 -109.5936 244° Southwest 416 479 32,000  Level Albuquerque Center
04:32PM 34.7583 -109.7203 246° West 423 487 32,000  Level Albuquerque Center
04:33PM 34.7047 -109.8661 246° West 423 487 32,000  Level Albuquerque Center
04:34PM 34.6592 -109.9906 246° West 422 486 32,000  Level Albuquerque Center
04:35PM 34.6050 -110.1350 246° West 421 484 32,000  Level Albuquerque Center
04:36PM 34.5622 -110.2650 248° West 427 491 32,000  Level Albuquerque Center
04:37PM 34.5114 -110.3811 242° Southwest 410 472 32,000 -360 Level Albuquerque Center
04:38PM 34.4619 -110.5303 248° West 431 496 31,300 -2,040 Descending Albuquerque Center
04:39PM 34.4119 -110.6569 244° Southwest 424 488 27,900 -2,940 Descending Albuquerque Center
04:40PM 34.3583 -110.7803 242° Southwest 419 482 25,300 -2,280 Descending Albuquerque Center
04:41PM 34.2883 -110.8833 231° Southwest 401 461 23,300 -1,860 Descending Albuquerque Center
04:42PM 34.2178 -110.9725 226° Southwest 376 433 21,500 -1,800 Descending Albuquerque Center
04:43PM 34.1503 -111.0583 226° Southwest 360 414 19,600 -2,040 Descending Albuquerque Center
04:44PM 34.0756 -111.1547 227° Southwest 335 386 17,400 -1,920 Descending Albuquerque Center
04:45PM 34.0161 -111.2322 227° Southwest 321 369 15,700 -1,620 Descending Albuquerque Center
04:46PM 33.9589 -111.3058 227° Southwest 306 352 14,100 -1,560 Descending Albuquerque Center
04:47PM 33.9019 -111.3786 227° Southwest 300 345 12,500 -1,440 Descending Albuquerque Center
04:48PM 33.8417 -111.4400 220° Southwest 283 326 11,200 -1,020 Descending Albuquerque Center
04:49PM 33.7786 -111.4931 215° Southwest 275 316 10,500 -840 Descending Albuquerque Center
04:50PM 33.7247 -111.5411 217° Southwest 244 281 9,500 -1,080 Descending Albuquerque Center
04:51PM 33.6656 -111.5781 207° Southwest 241 277 8,300 -1,080 Descending Albuquerque Center
04:52PM 33.5947 -111.6225 208° Southwest 238 274 7,300 -1,020 Descending Albuquerque Center
04:53PM 33.5406 -111.6633 212° Southwest 232 267 6,200 -1,080 Descending Albuquerque Center
04:54PM 33.4961 -111.7150 224° Southwest 222 255 5,200 -900 Descending Albuquerque Center
04:55PM 33.4694 -111.7814 244° Southwest 219 252 4,400 -780 Descending Albuquerque Center
04:56PM 33.4458 -111.8389 244° Southwest 195 224 3,600 -960 Descending Albuquerque Center
04:57PM 33.4411 -111.8983 265° West 181 208 2,500 -900 Descending Albuquerque Center
04:58PM 33.4414 -111.9486 270° West 154 177 1,800 -720 Descending Albuquerque Center
05:00PM 33.4461 -111.9983 277° West 162 186 1,100 -720 Descending Albuquerque Center
05:01PM 33.4333 -112.0000 270° West  Level FlightAware Approximate
05:08PM 33.4343 -112.0116 270° West  Level Estimated